TimePDT,TemperatureF,Dew PointF,Humidity,Sea Level PressureIn,VisibilityMPH,Wind Direction,Wind SpeedMPH,Gust SpeedMPH,PrecipitationIn,Events,Conditions,WindDirDegrees,DateUTC
12:56 AM,55.9,50.0,80,29.85,10.0,South,8.1,-,0.00,Rain,Light Rain,180,2012-10-22 07:56:00
1:18 AM,55.4,50.0,82,29.85,4.0,SSW,3.5,-,0.03,Rain,Rain,210,2012-10-22 08:18:00
1:56 AM,55.4,50.0,82,29.84,6.0,SE,6.9,-,N/A,Rain,Rain,140,2012-10-22 08:56:00
2:15 AM,55.4,51.8,88,29.84,6.0,SE,6.9,-,0.01,Rain,Light Rain,130,2012-10-22 09:15:00
2:39 AM,55.4,51.8,88,29.83,3.0,SSE,8.1,-,0.04,Rain,Light Rain,160,2012-10-22 09:39:00
2:56 AM,55.0,51.1,86,29.81,3.0,East,9.2,-,0.07,Rain,Rain,100,2012-10-22 09:56:00
5:43 AM,55.4,48.2,77,29.74,5.0,SSE,17.3,21.9,0.01,Rain,Rain,150,2012-10-22 12:43:00
7:41 AM,57.2,51.8,82,29.75,2.0,South,16.1,25.3,0.07,Rain,Rain,170,2012-10-22 14:41:00
7:56 AM,57.0,52.0,83,29.75,2.5,South,17.3,23.0,0.09,Rain,Rain,170,2012-10-22 14:56:00
8:01 AM,57.2,51.8,82,29.75,3.0,South,13.8,23.0,0.01,Rain,Light Rain,170,2012-10-22 15:01:00
8:30 AM,57.2,51.8,82,29.79,5.0,WSW,13.8,27.6,0.02,Rain,Light Rain,250,2012-10-22 15:30:00
8:56 AM,55.9,50.0,80,29.81,9.0,West,12.7,-,0.03,,Mostly Cloudy,270,2012-10-22 15:56:00
9:56 AM,55.9,50.0,80,29.84,10.0,WSW,12.7,-,N/A,,Mostly Cloudy,250,2012-10-22 16:56:00
10:56 AM,57.9,50.0,75,29.86,10.0,West,13.8,-,N/A,,Mostly Cloudy,260,2012-10-22 17:56:00
11:56 AM,60.1,48.9,67,29.88,10.0,West,16.1,-,N/A,,Mostly Cloudy,280,2012-10-22 18:56:00
12:56 PM,61.0,46.9,60,29.88,10.0,West,9.2,17.3,N/A,,Mostly Cloudy,260,2012-10-22 19:56:00
1:56 PM,63.0,45.0,52,29.88,10.0,WSW,9.2,-,N/A,,Mostly Cloudy,250,2012-10-22 20:56:00
2:56 PM,63.0,43.0,48,29.89,10.0,SW,15.0,-,N/A,,Mostly Cloudy,230,2012-10-22 21:56:00
3:56 PM,62.6,46.4,55,29.89,10.0,SSW,15.0,19.6,N/A,,Mostly Cloudy,210,2012-10-22 22:56:00
4:56 PM,62.1,43.0,50,29.89,10.0,WSW,16.1,24.2,N/A,,Scattered Clouds,240,2012-10-22 23:56:00
5:56 PM,60.1,43.0,53,29.89,10.0,SSW,10.4,-,N/A,,Partly Cloudy,200,2012-10-23 00:56:00
6:56 PM,59.0,44.1,58,29.89,10.0,South,9.2,-,N/A,,Scattered Clouds,190,2012-10-23 01:56:00
7:56 PM,59.0,46.0,62,29.91,10.0,South,9.2,-,N/A,,Mostly Cloudy,190,2012-10-23 02:56:00
8:56 PM,59.0,46.9,64,29.91,10.0,South,11.5,-,N/A,,Mostly Cloudy,190,2012-10-23 03:56:00
9:56 PM,59.0,48.9,69,29.93,10.0,SSW,8.1,-,0.00,Rain,Light Rain,210,2012-10-23 04:56:00
10:56 PM,57.9,46.9,67,29.93,10.0,SW,15.0,-,0.00,,Mostly Cloudy,220,2012-10-23 05:56:00
11:56 PM,57.9,46.9,67,29.94,10.0,SW,15.0,-,N/A,,Mostly Cloudy,220,2012-10-23 06:56:00